Latest Weather Observations for Kuitpo

IDS60801

Issued at 6:35 pm CST Tuesday 2 September 2014 (issued every 30 minutes, with the page automatically refreshed every 10 minutes)

About weather observations | Map of weather stations | Latest weather observations for SA | Other Formats
Station Details ID: 023887 Name: KUITPO FOREST RESERVE Lat: -35.17 Lon: 138.68 Height: 365.0 m
Data from the previous 72 hours. | See also: Recent months at Kuitpo
Date/Time
CST
Temp
°C
App
Temp
°C
Dew
Point
Rel
Hum
%
Delta-T
°C
Wind Press
QNH
hPa
Press
MSL
hPa
Rain
since 9 am
mm
Dir
 
Spd
km/h
Gust
km/h
Spd
kts
Gust
kts
02/06:30pm 7.9 5.1 7.1 95 0.4 SE 11 19 6 10 1024.4 1024.4 0.2
02/06:00pm 8.3 4.9 5.9 85 1.1 SSE 13 19 7 10 1024.2 1024.2 0.2
02/05:30pm 8.9 5.8 5.6 80 1.5 S 11 17 6 9 1024.0 1024.0 0.2
02/05:00pm 10.1 7.0 5.7 74 2.1 S 11 20 6 11 1023.8 1023.8 0.2
02/04:30pm 9.9 6.3 4.9 71 2.3 S 13 22 7 12 1023.7 1023.6 0.2
02/04:00pm 11.5 7.9 4.9 64 3.1 S 13 20 7 11 1023.5 1023.4 0.2
02/03:30pm 11.0 7.6 4.2 63 3.1 S 11 22 6 12 1023.4 1023.3 0.2
02/03:00pm 11.0 7.3 4.7 65 2.9 S 13 24 7 13 1023.2 1023.1 0.2
02/02:30pm 12.0 7.9 4.2 59 3.6 S 15 24 8 13 1023.2 1023.1 0.2
02/02:00pm 12.5 8.9 5.2 61 3.4 S 13 28 7 15 1023.2 1023.1 0.2
02/01:30pm 11.8 8.1 6.3 69 2.6 SSE 15 24 8 13 1023.0 1022.9 0.2
02/01:00pm 11.7 8.3 7.8 77 1.9 S 15 26 8 14 1023.3 1023.2 0.2
02/12:30pm 11.8 9.0 6.9 72 2.4 SSE 11 20 6 11 1023.2 1023.1 0.2
02/12:00pm 11.9 7.7 5.8 66 2.9 S 17 32 9 17 1023.2 1023.1 0.2
02/11:30am 11.7 7.8 7.0 73 2.3 S 17 30 9 16 1023.4 1023.3 0.2
02/11:00am 8.8 4.2 5.7 81 1.4 S 19 33 10 18 1023.4 1023.3 0.2
02/10:30am 11.4 7.4 6.5 72 2.3 S 17 30 9 16 1023.4 1023.3 0.0
02/10:00am 10.7 7.5 6.8 77 1.9 S 13 26 7 14 1023.2 1023.1 0.0
02/09:30am 8.5 6.2 7.4 93 0.5 S 9 13 5 7 1023.3 1023.2 0.0
02/09:00am 8.5 1.9 6.0 84 1.2 SSW 30 41 16 22 1023.1 1023.0 2.0
02/08:59am 8.7 1.7 6.0 83 1.3 SSW 32 41 17 22 1023.0 1022.9 2.0
02/08:30am 8.7 6.3 7.0 89 0.8 S 9 17 5 9 1023.1 1023.0 2.0
02/08:00am 7.3 4.7 6.2 93 0.5 S 9 15 5 8 1022.8 1022.7 2.0
02/07:30am 6.1 3.1 5.8 98 0.1 SW 11 20 6 11 1022.2 1022.1 2.0
02/07:00am 5.3 1.7 5.2 99 0.0 WSW 13 19 7 10 1021.6 1021.6 2.0
02/06:30am 4.9 1.6 4.6 98 0.1 SW 11 15 6 8 1021.2 1021.1 2.0
02/06:00am 5.4 1.8 5.0 97 0.2 SW 13 17 7 9 1020.6 1020.5 1.8
02/05:30am 5.6 1.9 4.4 92 0.5 SSW 13 20 7 11 1020.3 1020.2 1.8
02/05:00am 5.1 0.6 4.1 93 0.4 SW 17 26 9 14 1019.7 1019.6 1.8
02/04:30am 4.8 1.1 4.2 96 0.3 WSW 13 24 7 13 1019.4 1019.3 1.8
02/04:00am 5.3 1.2 4.3 93 0.4 SW 15 20 8 11 1019.1 1018.9 1.8
02/03:30am 6.0 1.5 4.0 87 0.9 SW 17 24 9 13 1018.7 1018.6 1.4
02/03:00am 6.0 0.9 4.0 87 0.9 SW 20 30 11 16 1018.4 1018.3 1.4
02/02:30am 5.9 0.7 3.7 86 0.9 SW 20 35 11 19 1018.2 1018.1 1.4
02/02:00am 5.7 0.5 3.7 87 0.9 SW 20 33 11 18 1018.1 1018.0 1.4
02/01:30am 5.7 0.5 3.7 87 0.9 WSW 20 28 11 15 1018.1 1018.0 1.4
02/01:00am 5.7 0.6 4.0 89 0.7 WSW 20 28 11 15 1017.9 1017.8 1.4
02/12:30am 6.0 1.3 5.3 95 0.3 WSW 19 28 10 15 1017.9 1017.8 1.4
02/12:00am 6.0 1.8 5.9 99 0.0 SW 17 24 9 13 1017.7 1017.6 1.4
 
Date/Time
CST
Temp
°C
App
Temp
°C
Dew
Point
Rel
Hum
%
Delta-T
°C
Wind Press
QNH
hPa
Press
MSL
hPa
Rain
since 9 am
mm
Dir
 
Spd
km/h
Gust
km/h
Spd
kts
Gust
kts
01/11:30pm 5.9 1.3 5.8 99 0.0 WSW 19 26 10 14 1017.6 1017.5 1.4
01/11:00pm 5.7 1.0 5.1 96 0.3 WSW 19 28 10 15 1017.6 1017.5 1.4
01/10:30pm 5.7 1.7 5.1 96 0.3 SW 15 22 8 12 1017.3 1017.2 1.4
01/10:00pm 6.4 2.3 6.0 97 0.2 WSW 17 28 9 15 1017.2 1017.1 1.0
01/09:30pm 6.4 1.9 6.3 99 0.0 WSW 19 26 10 14 1016.8 1016.7 0.4
01/09:00pm 6.4 2.3 6.3 99 0.0 WSW 17 24 9 13 1016.4 1016.2 0.4
01/08:30pm 6.7 1.9 5.8 94 0.4 WSW 20 33 11 18 1015.9 1015.8 0.4
01/08:00pm 6.9 2.0 5.1 88 0.8 SW 20 32 11 17 1015.6 1015.5 0.4
01/07:35pm 6.7 0.4 5.7 93 0.5 SW 28 46 15 25 1015.1 1015.0 0.4
01/07:30pm 7.3 2.7 6.7 96 0.3 SW 20 43 11 23 1015.1 1015.0 0.4
01/07:00pm 8.3 3.9 7.4 94 0.4 WSW 20 30 11 16 1014.9 1014.8 0.2
01/06:30pm 8.9 4.6 7.2 89 0.8 W 19 32 10 17 1014.3 1014.1 0.2
01/06:00pm 9.0 4.7 7.0 87 1.0 W 19 28 10 15 1014.0 1013.8 0.2
01/05:30pm 9.5 4.6 7.1 85 1.2 WSW 22 33 12 18 1013.8 1013.6 0.2
01/05:00pm 10.1 5.2 6.8 80 1.6 WSW 22 39 12 21 1013.4 1013.2 0.2
01/04:30pm 10.3 5.2 5.9 74 2.1 WSW 22 33 12 18 1013.1 1013.0 0.2
01/04:00pm 11.4 6.9 6.3 71 2.4 WSW 19 32 10 17 1012.9 1012.8 0.2
01/03:30pm 11.3 5.7 5.2 66 2.9 W 24 33 13 18 1012.6 1012.5 0.2
01/03:00pm 12.4 7.8 6.5 67 2.9 W 20 35 11 19 1012.6 1012.5 0.2
01/02:30pm 12.2 7.6 6.7 69 2.7 WSW 20 32 11 17 1012.4 1012.3 0.2
01/02:00pm 12.6 8.2 6.6 67 2.9 WSW 19 28 10 15 1012.2 1012.1 0.2
01/01:30pm 11.8 6.9 6.7 71 2.5 WSW 22 33 12 18 1012.2 1012.1 0.2
01/01:00pm 11.9 7.5 6.4 69 2.7 WSW 19 30 10 16 1012.4 1012.3 0.2
01/12:30pm 11.7 6.6 5.8 67 2.8 WSW 22 41 12 22 1012.3 1012.2 0.0
01/12:00pm 11.6 6.2 6.5 71 2.5 WSW 24 37 13 20 1012.4 1012.3 0.0
01/11:30am 11.9 7.4 7.0 72 2.4 WSW 20 35 11 19 1012.5 1012.4 0.0
01/11:00am 10.8 6.2 8.0 83 1.4 WSW 22 37 12 20 1012.5 1012.4 0.0
01/10:30am 10.4 6.1 9.3 93 0.6 WSW 22 46 12 25 1012.2 1012.1 0.0
01/10:00am 9.9 6.1 9.9 100 0.0 WSW 20 37 11 20 1012.1 1012.0 0.0
01/09:30am 9.9 7.1 9.9 100 0.0 W 15 20 8 11 1012.0 1011.8 0.0
01/09:00am 9.2 6.2 9.2 100 0.0 W 15 20 8 11 1011.9 1012.0 7.4
01/08:30am 9.3 6.7 9.3 100 0.0 WSW 13 20 7 11 1011.6 1011.7 7.4
01/08:00am 9.3 5.4 9.3 100 0.0 WSW 20 28 11 15 1011.5 1011.6 7.2
01/07:30am 9.7 5.5 9.7 100 0.0 WSW 22 43 12 23 1011.2 1011.3 7.2
01/07:00am 10.0 6.4 10.0 100 0.0 WSW 19 30 10 16 1010.7 1010.8 7.0
01/06:30am 10.0 6.4 10.0 100 0.0 W 19 28 10 15 1010.6 1010.7 7.0
01/06:00am 10.0 6.4 10.0 100 0.0 W 19 28 10 15 1010.2 1010.4 7.0
01/05:30am 9.9 6.7 9.9 100 0.0 W 17 24 9 13 1009.9 1010.1 7.0
01/05:00am 9.9 6.3 9.9 100 0.0 W 19 28 10 15 1009.9 1010.1 7.0
01/04:30am 9.9 7.1 9.9 100 0.0 WSW 15 22 8 12 1009.6 1009.7 6.8
01/04:00am 9.8 6.9 9.8 100 0.0 W 15 24 8 13 1009.3 1009.4 6.8
01/03:30am 9.7 7.2 9.7 100 0.0 W 13 20 7 11 1009.4 1009.5 6.8
01/03:00am 9.7 6.4 9.7 100 0.0 WSW 17 26 9 14 1009.7 1009.9 6.4
01/02:30am 9.7 6.4 9.7 100 0.0 WSW 17 30 9 16 1009.8 1010.0 5.6
01/02:00am 9.6 6.7 9.6 100 0.0 W 15 20 8 11 1009.9 1010.1 4.8
01/01:30am 9.5 5.6 9.5 100 0.0 WSW 20 30 11 16 1010.2 1010.4 3.2
01/01:00am 9.4 5.1 9.4 100 0.0 WSW 22 37 12 20 1010.1 1010.3 1.6
01/12:30am 10.6 7.0 10.6 100 0.0 WSW 20 32 11 17 1010.2 1010.4 0.4
01/12:00am 11.2 8.7 11.2 100 0.0 W 15 28 8 15 1010.5 1010.6 0.0
 
Date/Time
CST
Temp
°C
App
Temp
°C
Dew
Point
Rel
Hum
%
Delta-T
°C
Wind Press
QNH
hPa
Press
MSL
hPa
Rain
since 9 am
mm
Dir
 
Spd
km/h
Gust
km/h
Spd
kts
Gust
kts
31/11:30pm 11.6 9.3 11.6 100 0.0 WSW 15 24 8 13 1009.7 1009.9 0.0
31/11:00pm 11.8 10.3 11.8 100 0.0 W 11 19 6 10 1009.4 1009.5 0.0
31/10:30pm 11.9 10.0 11.7 99 0.1 W 13 17 7 9 1010.5 1010.6 0.0
31/10:00pm 11.8 9.9 10.4 91 0.7 W 11 15 6 8 1009.9 1010.1 0.0
31/09:30pm 11.7 9.0 8.9 83 1.4 W 13 20 7 11 1009.9 1010.1 0.0
31/09:00pm 12.2 8.3 7.3 72 2.4 W 17 26 9 14 1010.0 1010.2 0.0
31/08:30pm 13.2 9.3 5.4 59 3.7 W 15 26 8 14 1009.6 1009.7 0.0
31/08:00pm 14.4 10.7 4.7 52 4.6 WNW 13 28 7 15 1009.9 1010.1 0.0
31/07:30pm 15.3 9.4 3.8 46 5.4 W 24 33 13 18 1010.3 1010.5 0.0
31/07:00pm 15.2 11.6 4.9 50 4.9 NW 13 19 7 10 1009.7 1009.9 0.0
31/06:30pm 15.7 12.0 6.2 53 4.7 NW 15 26 8 14 1009.8 1010.0 0.0
31/06:00pm 16.5 11.0 6.1 50 5.2 WNW 24 35 13 19 1009.7 1009.9 0.0
31/05:30pm 17.8 12.7 3.3 38 6.9 NNW 19 33 10 18 1009.3 1009.4 0.0
31/05:00pm 17.6 13.5 4.2 41 6.4 N 15 26 8 14 1009.3 1009.4 0.0
31/04:30pm 18.6 13.5 4.0 38 7.1 NNW 20 35 11 19 1009.3 1009.4 0.0
31/04:00pm 18.8 13.8 4.6 39 6.9 N 20 33 11 18 1008.6 1008.7 0.0
31/03:30pm 19.0 14.0 4.4 38 7.1 N 20 35 11 19 1009.0 1009.1 0.0
31/03:00pm 19.3 14.4 5.0 39 7.1 N 20 32 11 17 1009.4 1009.5 0.0
31/02:30pm 18.4 13.7 5.3 42 6.5 NNW 19 30 10 16 1010.1 1010.3 0.0
31/02:00pm 18.7 14.1 5.5 42 6.6 NNW 19 33 10 18 1010.7 1010.8 0.0
31/01:30pm 18.9 13.8 4.3 38 7.1 NNW 20 32 11 17 1011.3 1011.4 0.0
31/01:00pm 19.0 13.6 4.4 38 7.1 NNW 22 35 12 19 1011.8 1011.9 0.0
31/12:30pm 19.6 12.9 3.7 35 7.7 NNW 28 43 15 23 1012.2 1012.4 0.0
31/12:00pm 19.1 12.5 4.1 37 7.3 NNW 28 52 15 28 1013.1 1013.3 0.0
31/11:59am 19.0 12.1 2.8 34 7.7 NNW 28 52 15 28 1013.1 1013.3 0.0
31/11:30am 18.4 12.3 2.7 35 7.4 NNW 24 44 13 24 1013.2 1013.4 0.0
31/11:00am 16.5 9.7 1.0 35 6.9 NNW 26 50 14 27 1013.6 1013.7 0.0
31/10:30am 17.0 10.5 0.6 33 7.3 NNW 24 43 13 23 1014.1 1014.2 0.0
31/10:00am 16.6 10.9 0.3 33 7.2 NW 20 35 11 19 1014.6 1014.8 0.0
31/09:30am 16.3 10.3 0.8 35 6.9 NNW 22 35 12 19 1014.2 1014.3 0.0
31/09:00am 16.3 9.8 0.0 33 7.1 NNW 24 39 13 21 1014.2 1014.3 0.0
31/08:30am 15.8 9.3 0.0 34 6.9 NNW 24 39 13 21 1014.1 1014.2 0.0
31/08:00am 15.8 9.3 0.4 35 6.7 NNW 24 39 13 21 1014.3 1014.5 0.0
31/07:30am 15.4 8.8 -0.4 34 6.8 NNW 24 39 13 21 1014.4 1014.6 0.0
31/07:00am 14.8 9.6 -0.1 36 6.4 NNW 17 32 9 17 1014.4 1014.6 0.0
31/06:30am 15.5 9.2 -0.7 33 6.9 NNW 22 35 12 19 1014.6 1014.8 0.0
31/06:00am 15.6 9.7 -0.6 33 6.9 NNW 20 37 11 20 1014.3 1014.5 0.0
31/05:30am 15.6 9.7 -0.6 33 6.9 NNW 20 32 11 17 1014.2 1014.3 0.0
31/05:00am 15.6 9.4 -0.2 34 6.8 NNW 22 41 12 22 1014.2 1014.3 0.0
31/04:30am 16.1 10.3 -0.2 33 7.1 NNW 20 37 11 20 1014.2 1014.3 0.0
31/04:00am 15.6 10.8 0.2 35 6.7 NNW 15 24 8 13 1014.3 1014.5 0.0
31/03:30am 15.5 10.7 0.5 36 6.6 NNW 15 24 8 13 1014.5 1014.7 0.0
31/03:00am 14.9 10.6 1.1 39 6.1 N 13 20 7 11 1014.6 1014.8 0.0
31/02:30am 14.6 10.3 1.2 40 5.9 N 13 20 7 11 1015.2 1015.4 0.0
31/02:00am 14.7 10.5 1.9 42 5.7 N 13 22 7 12 1015.5 1015.7 0.0
31/01:30am 14.6 10.8 1.5 41 5.8 N 11 17 6 9 1015.7 1015.9 0.0
31/01:00am 15.1 11.3 1.6 40 6.0 N 11 17 6 9 1015.9 1016.1 0.0
31/12:30am 13.4 9.7 2.6 48 4.9 N 11 17 6 9 1016.0 1016.2 0.0
31/12:00am 12.9 9.8 3.6 53 4.3 N 9 15 5 8 1016.4 1016.5 0.0
 
Date/Time
CST
Temp
°C
App
Temp
°C
Dew
Point
Rel
Hum
%
Delta-T
°C
Wind Press
QNH
hPa
Press
MSL
hPa
Rain
since 9 am
mm
Dir
 
Spd
km/h
Gust
km/h
Spd
kts
Gust
kts
30/11:30pm 12.2 8.5 4.4 59 3.6 NNE 13 15 7 8 1016.7 1016.9 0.0
30/11:00pm 12.7 9.0 4.4 57 3.9 NNE 13 20 7 11 1016.9 1017.1 0.0
30/10:30pm 13.4 9.7 4.3 54 4.2 NNE 13 15 7 8 1017.4 1017.6 0.0
30/10:00pm 13.9 10.5 4.2 52 4.5 NNE 11 15 6 8 1017.7 1017.9 0.0
30/09:30pm 13.7 10.0 4.3 53 4.4 NNE 13 15 7 8 1018.0 1018.2 0.0
30/09:00pm 13.4 10.0 4.0 53 4.3 NNE 11 15 6 8 1018.1 1018.3 0.0
30/08:30pm 14.0 10.7 4.3 52 4.5 NNE 11 15 6 8 1018.2 1018.4 0.0
30/08:00pm 14.2 10.8 4.2 51 4.7 NNE 11 15 6 8 1018.3 1018.5 0.0
30/07:30pm 15.2 12.1 3.7 46 5.4 N 9 13 5 7 1018.4 1018.6 0.0
30/07:00pm 15.5 12.3 3.0 43 5.8 N 9 15 5 8 1018.5 1018.7 0.0

Other Formats:

Comma delimited format used in spreadsheet applications
http://www.bom.gov.au/fwo/IDS60801/IDS60801.94683.axf

JavaScript Object Notation format (JSON) in row-major order
http://www.bom.gov.au/fwo/IDS60801/IDS60801.94683.json